sensor_id;sensor_type;location;lat;lon;timestamp;pressure;altitude;pressure_sealevel;temperature;humidity
47080;BME280;33067;49.296;14.470;2023-06-10T00:02:08;96688.28;;;19.63;43.93
47080;BME280;33067;49.296;14.470;2023-06-10T00:04:34;96690.46;;;19.59;44.01
47080;BME280;33067;49.296;14.470;2023-06-10T00:06:59;96688.94;;;19.73;43.94
47080;BME280;33067;49.296;14.470;2023-06-10T00:09:25;96689.34;;;19.63;43.77
47080;BME280;33067;49.296;14.470;2023-06-10T00:11:50;96688.54;;;19.93;43.44
47080;BME280;33067;49.296;14.470;2023-06-10T00:14:16;96682.99;;;19.74;43.77
47080;BME280;33067;49.296;14.470;2023-06-10T00:16:41;96682.73;;;19.36;43.92
47080;BME280;33067;49.296;14.470;2023-06-10T00:19:06;96678.02;;;19.37;44.60
47080;BME280;33067;49.296;14.470;2023-06-10T00:21:33;96673.32;;;18.89;44.78
47080;BME280;33067;49.296;14.470;2023-06-10T00:23:57;96679.49;;;19.53;44.43
47080;BME280;33067;49.296;14.470;2023-06-10T00:26:22;96680.25;;;19.33;43.83
47080;BME280;33067;49.296;14.470;2023-06-10T00:28:48;96679.44;;;19.13;44.58
47080;BME280;33067;49.296;14.470;2023-06-10T00:31:13;96680.81;;;19.32;44.41
47080;BME280;33067;49.296;14.470;2023-06-10T00:33:38;96685.29;;;19.37;44.19
47080;BME280;33067;49.296;14.470;2023-06-10T00:36:04;96686.22;;;19.42;44.14
47080;BME280;33067;49.296;14.470;2023-06-10T00:38:29;96688.21;;;19.21;44.23
47080;BME280;33067;49.296;14.470;2023-06-10T00:40:55;96686.75;;;18.83;44.27
47080;BME280;33067;49.296;14.470;2023-06-10T00:43:20;96689.94;;;19.23;44.74
47080;BME280;33067;49.296;14.470;2023-06-10T00:45:46;96692.21;;;18.86;45.07
47080;BME280;33067;49.296;14.470;2023-06-10T00:48:11;96697.39;;;18.87;45.15
47080;BME280;33067;49.296;14.470;2023-06-10T00:50:36;96693.83;;;18.97;44.89
47080;BME280;33067;49.296;14.470;2023-06-10T00:53:02;96691.52;;;18.96;44.88
47080;BME280;33067;49.296;14.470;2023-06-10T00:55:27;96689.21;;;19.17;44.55
47080;BME280;33067;49.296;14.470;2023-06-10T00:57:53;96690.74;;;18.77;44.91
47080;BME280;33067;49.296;14.470;2023-06-10T01:00:18;96685.12;;;19.17;44.54
47080;BME280;33067;49.296;14.470;2023-06-10T01:02:43;96687.34;;;19.03;44.78
47080;BME280;33067;49.296;14.470;2023-06-10T01:05:10;96689.10;;;19.00;44.86
47080;BME280;33067;49.296;14.470;2023-06-10T01:07:39;96684.77;;;19.00;44.78
47080;BME280;33067;49.296;14.470;2023-06-10T01:10:05;96683.03;;;18.92;44.57
47080;BME280;33067;49.296;14.470;2023-06-10T01:12:31;96681.63;;;19.07;44.63
47080;BME280;33067;49.296;14.470;2023-06-10T01:14:51;96685.94;;;19.52;43.91
47080;BME280;33067;49.296;14.470;2023-06-10T01:17:17;96686.58;;;19.04;44.27
47080;BME280;33067;49.296;14.470;2023-06-10T01:19:42;96687.35;;;18.99;44.31
47080;BME280;33067;49.296;14.470;2023-06-10T01:22:07;96691.07;;;18.78;44.76
47080;BME280;33067;49.296;14.470;2023-06-10T01:24:33;96686.43;;;19.06;44.31
47080;BME280;33067;49.296;14.470;2023-06-10T01:27:01;96690.40;;;19.21;44.00
47080;BME280;33067;49.296;14.470;2023-06-10T01:29:31;96692.72;;;19.07;44.05
47080;BME280;33067;49.296;14.470;2023-06-10T01:31:54;96693.54;;;18.88;44.50
47080;BME280;33067;49.296;14.470;2023-06-10T01:34:18;96693.36;;;19.02;44.81
47080;BME280;33067;49.296;14.470;2023-06-10T01:36:46;96694.40;;;18.98;45.26
47080;BME280;33067;49.296;14.470;2023-06-10T01:39:08;96694.81;;;18.69;45.26
47080;BME280;33067;49.296;14.470;2023-06-10T01:41:32;96697.91;;;18.78;45.63
47080;BME280;33067;49.296;14.470;2023-06-10T01:43:57;96700.55;;;18.63;45.88
47080;BME280;33067;49.296;14.470;2023-06-10T01:46:22;96701.24;;;18.47;46.23
47080;BME280;33067;49.296;14.470;2023-06-10T01:48:48;96705.58;;;18.31;46.76
47080;BME280;33067;49.296;14.470;2023-06-10T01:51:14;96707.03;;;18.36;46.64
47080;BME280;33067;49.296;14.470;2023-06-10T01:53:39;96708.52;;;18.31;46.78
47080;BME280;33067;49.296;14.470;2023-06-10T01:56:05;96707.31;;;18.38;46.52
47080;BME280;33067;49.296;14.470;2023-06-10T01:58:30;96708.12;;;18.22;47.04
47080;BME280;33067;49.296;14.470;2023-06-10T02:00:56;96709.90;;;18.12;47.32
47080;BME280;33067;49.296;14.470;2023-06-10T02:03:21;96711.03;;;18.24;47.23
47080;BME280;33067;49.296;14.470;2023-06-10T02:05:48;96707.12;;;18.28;47.12
47080;BME280;33067;49.296;14.470;2023-06-10T02:08:11;96708.16;;;18.63;46.85
47080;BME280;33067;49.296;14.470;2023-06-10T02:13:00;96708.37;;;18.18;46.90
47080;BME280;33067;49.296;14.470;2023-06-10T02:15:26;96704.31;;;18.27;47.21
47080;BME280;33067;49.296;14.470;2023-06-10T02:17:52;96702.39;;;18.31;47.23
47080;BME280;33067;49.296;14.470;2023-06-10T02:20:17;96701.92;;;18.38;47.17
47080;BME280;33067;49.296;14.470;2023-06-10T02:22:42;96699.39;;;18.49;46.91
47080;BME280;33067;49.296;14.470;2023-06-10T02:25:09;96695.80;;;18.61;47.49
47080;BME280;33067;49.296;14.470;2023-06-10T02:27:34;96695.97;;;18.51;47.77
47080;BME280;33067;49.296;14.470;2023-06-10T02:30:00;96692.82;;;18.46;47.38
47080;BME280;33067;49.296;14.470;2023-06-10T02:32:25;96693.54;;;18.23;47.56
47080;BME280;33067;49.296;14.470;2023-06-10T02:34:50;96693.71;;;18.37;47.26
47080;BME280;33067;49.296;14.470;2023-06-10T02:37:16;96695.70;;;18.47;46.89
47080;BME280;33067;49.296;14.470;2023-06-10T02:39:41;96698.71;;;18.45;46.99
47080;BME280;33067;49.296;14.470;2023-06-10T02:42:08;96699.15;;;18.37;47.12
47080;BME280;33067;49.296;14.470;2023-06-10T02:44:32;96699.82;;;18.32;47.17
47080;BME280;33067;49.296;14.470;2023-06-10T02:46:57;96701.09;;;18.16;47.56
47080;BME280;33067;49.296;14.470;2023-06-10T02:49:22;96701.64;;;18.35;47.60
47080;BME280;33067;49.296;14.470;2023-06-10T02:51:50;96701.83;;;18.73;47.42
47080;BME280;33067;49.296;14.470;2023-06-10T02:54:14;96705.36;;;18.33;47.32
47080;BME280;33067;49.296;14.470;2023-06-10T02:56:40;96708.34;;;18.45;47.37
47080;BME280;33067;49.296;14.470;2023-06-10T02:59:07;96713.62;;;18.09;47.67
47080;BME280;33067;49.296;14.470;2023-06-10T03:01:31;96714.72;;;18.09;48.25
47080;BME280;33067;49.296;14.470;2023-06-10T03:03:58;96709.30;;;18.17;48.23
47080;BME280;33067;49.296;14.470;2023-06-10T03:06:22;96702.23;;;18.57;47.90
47080;BME280;33067;49.296;14.470;2023-06-10T03:08:47;96701.39;;;17.93;48.12
47080;BME280;33067;49.296;14.470;2023-06-10T03:11:14;96700.73;;;18.17;48.10
47080;BME280;33067;49.296;14.470;2023-06-10T03:13:38;96700.83;;;17.43;48.29
47080;BME280;33067;49.296;14.470;2023-06-10T03:16:04;96707.02;;;17.83;48.43
47080;BME280;33067;49.296;14.470;2023-06-10T03:18:29;96709.69;;;17.72;48.48
47080;BME280;33067;49.296;14.470;2023-06-10T03:20:55;96711.00;;;18.23;48.05
47080;BME280;33067;49.296;14.470;2023-06-10T03:23:20;96716.21;;;18.17;47.57
47080;BME280;33067;49.296;14.470;2023-06-10T03:25:48;96718.01;;;18.06;47.80
47080;BME280;33067;49.296;14.470;2023-06-10T03:28:11;96717.38;;;18.03;48.17
47080;BME280;33067;49.296;14.470;2023-06-10T03:30:37;96717.10;;;18.15;47.94
47080;BME280;33067;49.296;14.470;2023-06-10T03:33:04;96717.42;;;18.57;47.31
47080;BME280;33067;49.296;14.470;2023-06-10T03:35:30;96721.03;;;18.16;48.37
47080;BME280;33067;49.296;14.470;2023-06-10T03:37:53;96723.84;;;18.22;48.12
47080;BME280;33067;49.296;14.470;2023-06-10T03:40:18;96723.99;;;18.26;48.11
47080;BME280;33067;49.296;14.470;2023-06-10T03:42:44;96726.55;;;18.09;48.55
47080;BME280;33067;49.296;14.470;2023-06-10T03:45:10;96731.77;;;18.04;48.13
47080;BME280;33067;49.296;14.470;2023-06-10T03:47:37;96731.05;;;18.06;48.15
47080;BME280;33067;49.296;14.470;2023-06-10T03:50:00;96734.45;;;17.87;48.26
47080;BME280;33067;49.296;14.470;2023-06-10T03:52:26;96731.68;;;17.99;48.06
47080;BME280;33067;49.296;14.470;2023-06-10T03:54:51;96736.22;;;18.29;48.07
47080;BME280;33067;49.296;14.470;2023-06-10T03:57:16;96741.20;;;18.21;47.77
47080;BME280;33067;49.296;14.470;2023-06-10T03:59:42;96746.99;;;18.41;48.00
47080;BME280;33067;49.296;14.470;2023-06-10T04:02:07;96749.32;;;18.10;48.11
47080;BME280;33067;49.296;14.470;2023-06-10T04:04:32;96752.26;;;18.37;48.13
47080;BME280;33067;49.296;14.470;2023-06-10T04:06:58;96752.26;;;18.20;48.20
47080;BME280;33067;49.296;14.470;2023-06-10T04:09:23;96749.47;;;18.47;48.24
47080;BME280;33067;49.296;14.470;2023-06-10T04:11:49;96755.78;;;18.18;48.47
47080;BME280;33067;49.296;14.470;2023-06-10T04:14:14;96757.33;;;18.27;48.18
47080;BME280;33067;49.296;14.470;2023-06-10T04:16:39;96753.83;;;18.23;48.48
47080;BME280;33067;49.296;14.470;2023-06-10T04:19:04;96752.07;;;18.46;48.23
47080;BME280;33067;49.296;14.470;2023-06-10T04:21:31;96756.65;;;18.48;48.21
47080;BME280;33067;49.296;14.470;2023-06-10T04:23:56;96754.93;;;18.73;48.35
47080;BME280;33067;49.296;14.470;2023-06-10T04:26:21;96754.20;;;18.88;48.04
47080;BME280;33067;49.296;14.470;2023-06-10T04:28:46;96753.12;;;18.42;48.54
47080;BME280;33067;49.296;14.470;2023-06-10T04:31:12;96748.30;;;18.36;48.91
47080;BME280;33067;49.296;14.470;2023-06-10T04:33:37;96744.39;;;18.41;48.89
47080;BME280;33067;49.296;14.470;2023-06-10T04:36:03;96744.50;;;18.59;48.83
47080;BME280;33067;49.296;14.470;2023-06-10T04:38:28;96745.39;;;18.61;48.80
47080;BME280;33067;49.296;14.470;2023-06-10T04:40:54;96745.68;;;18.35;48.79
47080;BME280;33067;49.296;14.470;2023-06-10T04:43:20;96743.55;;;18.82;48.30
47080;BME280;33067;49.296;14.470;2023-06-10T04:45:44;96745.17;;;18.87;47.66
47080;BME280;33067;49.296;14.470;2023-06-10T04:48:09;96744.04;;;18.73;48.17
47080;BME280;33067;49.296;14.470;2023-06-10T04:50:36;96747.00;;;18.75;48.44
47080;BME280;33067;49.296;14.470;2023-06-10T04:53:00;96745.32;;;18.88;48.23
47080;BME280;33067;49.296;14.470;2023-06-10T04:55:25;96743.78;;;19.01;47.96
47080;BME280;33067;49.296;14.470;2023-06-10T04:57:51;96742.99;;;19.06;47.88
47080;BME280;33067;49.296;14.470;2023-06-10T05:00:16;96745.54;;;19.05;48.18
47080;BME280;33067;49.296;14.470;2023-06-10T05:02:42;96742.90;;;19.29;47.82
47080;BME280;33067;49.296;14.470;2023-06-10T05:05:07;96744.32;;;19.24;48.04
47080;BME280;33067;49.296;14.470;2023-06-10T05:07:34;96743.99;;;19.50;47.10
47080;BME280;33067;49.296;14.470;2023-06-10T05:09:58;96744.72;;;19.35;47.50
47080;BME280;33067;49.296;14.470;2023-06-10T05:12:23;96750.10;;;19.33;47.78
47080;BME280;33067;49.296;14.470;2023-06-10T05:14:49;96751.88;;;19.12;47.88
47080;BME280;33067;49.296;14.470;2023-06-10T05:17:14;96751.95;;;19.38;47.94
47080;BME280;33067;49.296;14.470;2023-06-10T05:19:40;96749.32;;;19.50;47.95
47080;BME280;33067;49.296;14.470;2023-06-10T05:22:05;96752.04;;;19.37;47.73
47080;BME280;33067;49.296;14.470;2023-06-10T05:24:31;96755.49;;;19.41;47.18
47080;BME280;33067;49.296;14.470;2023-06-10T05:26:56;96757.61;;;19.57;47.48
47080;BME280;33067;49.296;14.470;2023-06-10T05:29:22;96759.97;;;19.53;48.14
47080;BME280;33067;49.296;14.470;2023-06-10T05:31:47;96760.06;;;19.59;48.18
47080;BME280;33067;49.296;14.470;2023-06-10T05:34:13;96762.07;;;19.71;48.05
47080;BME280;33067;49.296;14.470;2023-06-10T05:36:38;96763.33;;;19.60;47.89
47080;BME280;33067;49.296;14.470;2023-06-10T05:39:04;96763.56;;;19.85;47.89
47080;BME280;33067;49.296;14.470;2023-06-10T05:41:29;96765.52;;;19.92;47.86
47080;BME280;33067;49.296;14.470;2023-06-10T05:43:55;96765.84;;;19.70;47.84
47080;BME280;33067;49.296;14.470;2023-06-10T05:46:20;96767.47;;;19.91;47.87
47080;BME280;33067;49.296;14.470;2023-06-10T05:48:45;96764.46;;;19.64;47.89
47080;BME280;33067;49.296;14.470;2023-06-10T05:51:10;96765.12;;;19.68;47.94
47080;BME280;33067;49.296;14.470;2023-06-10T05:53:36;96764.67;;;19.67;48.28
47080;BME280;33067;49.296;14.470;2023-06-10T05:56:01;96759.96;;;19.90;48.27
47080;BME280;33067;49.296;14.470;2023-06-10T05:58:27;96754.65;;;20.16;47.85
47080;BME280;33067;49.296;14.470;2023-06-10T06:00:53;96760.95;;;19.98;48.42
47080;BME280;33067;49.296;14.470;2023-06-10T06:03:17;96763.23;;;19.91;48.29
47080;BME280;33067;49.296;14.470;2023-06-10T06:05:43;96762.68;;;20.06;48.17
47080;BME280;33067;49.296;14.470;2023-06-10T06:08:09;96763.61;;;20.07;48.30
47080;BME280;33067;49.296;14.470;2023-06-10T06:10:34;96765.48;;;20.11;48.55
47080;BME280;33067;49.296;14.470;2023-06-10T06:12:59;96764.71;;;19.90;48.99
47080;BME280;33067;49.296;14.470;2023-06-10T06:15:24;96767.88;;;20.07;49.15
47080;BME280;33067;49.296;14.470;2023-06-10T06:17:50;96769.13;;;19.70;49.42
47080;BME280;33067;49.296;14.470;2023-06-10T06:20:15;96769.70;;;19.85;49.39
47080;BME280;33067;49.296;14.470;2023-06-10T06:22:41;96768.66;;;20.02;49.30
47080;BME280;33067;49.296;14.470;2023-06-10T06:25:07;96776.39;;;19.65;50.20
47080;BME280;33067;49.296;14.470;2023-06-10T06:27:32;96776.57;;;20.08;49.44
47080;BME280;33067;49.296;14.470;2023-06-10T06:29:58;96776.88;;;20.16;49.63
47080;BME280;33067;49.296;14.470;2023-06-10T06:32:25;96774.83;;;20.43;49.13
47080;BME280;33067;49.296;14.470;2023-06-10T06:34:49;96779.01;;;20.56;49.19
47080;BME280;33067;49.296;14.470;2023-06-10T06:37:14;96779.02;;;20.72;48.78
47080;BME280;33067;49.296;14.470;2023-06-10T06:39:40;96778.73;;;20.69;48.41
47080;BME280;33067;49.296;14.470;2023-06-10T06:42:06;96777.05;;;20.56;48.82
47080;BME280;33067;49.296;14.470;2023-06-10T06:44:31;96780.52;;;20.54;48.59
47080;BME280;33067;49.296;14.470;2023-06-10T06:46:56;96781.44;;;20.68;48.46
47080;BME280;33067;49.296;14.470;2023-06-10T06:49:22;96780.96;;;20.71;48.44
47080;BME280;33067;49.296;14.470;2023-06-10T06:51:47;96782.01;;;21.10;47.92
47080;BME280;33067;49.296;14.470;2023-06-10T06:54:13;96788.46;;;21.01;47.63
47080;BME280;33067;49.296;14.470;2023-06-10T06:56:38;96789.30;;;21.12;47.70
47080;BME280;33067;49.296;14.470;2023-06-10T06:59:04;96789.64;;;20.99;47.46
47080;BME280;33067;49.296;14.470;2023-06-10T07:01:29;96789.36;;;21.10;47.04
47080;BME280;33067;49.296;14.470;2023-06-10T07:03:55;96789.84;;;21.02;46.68
47080;BME280;33067;49.296;14.470;2023-06-10T07:06:20;96795.12;;;20.95;47.19
47080;BME280;33067;49.296;14.470;2023-06-10T07:08:49;96798.97;;;21.22;46.88
47080;BME280;33067;49.296;14.470;2023-06-10T07:11:12;96798.82;;;21.29;46.87
47080;BME280;33067;49.296;14.470;2023-06-10T07:13:37;96799.49;;;21.68;46.62
47080;BME280;33067;49.296;14.470;2023-06-10T07:16:03;96802.57;;;21.69;46.61
47080;BME280;33067;49.296;14.470;2023-06-10T07:18:28;96802.79;;;21.41;46.18
47080;BME280;33067;49.296;14.470;2023-06-10T07:20:53;96801.05;;;21.66;46.28
47080;BME280;33067;49.296;14.470;2023-06-10T07:23:19;96801.52;;;21.64;46.31
47080;BME280;33067;49.296;14.470;2023-06-10T07:25:44;96803.57;;;21.33;46.33
47080;BME280;33067;49.296;14.470;2023-06-10T07:28:10;96805.06;;;21.43;45.95
47080;BME280;33067;49.296;14.470;2023-06-10T07:30:35;96802.84;;;21.91;45.91
47080;BME280;33067;49.296;14.470;2023-06-10T07:33:01;96800.89;;;21.99;45.91
47080;BME280;33067;49.296;14.470;2023-06-10T07:35:26;96804.52;;;21.71;45.96
47080;BME280;33067;49.296;14.470;2023-06-10T07:37:52;96803.37;;;21.76;45.68
47080;BME280;33067;49.296;14.470;2023-06-10T07:40:17;96810.79;;;21.76;45.29
47080;BME280;33067;49.296;14.470;2023-06-10T07:42:44;96814.84;;;21.21;45.63
47080;BME280;33067;49.296;14.470;2023-06-10T07:45:08;96816.92;;;21.99;45.49
47080;BME280;33067;49.296;14.470;2023-06-10T07:47:34;96824.14;;;21.95;45.81
47080;BME280;33067;49.296;14.470;2023-06-10T07:49:59;96824.21;;;21.73;45.48
47080;BME280;33067;49.296;14.470;2023-06-10T07:52:25;96822.26;;;21.53;46.33
47080;BME280;33067;49.296;14.470;2023-06-10T07:54:50;96823.60;;;21.85;45.84
47080;BME280;33067;49.296;14.470;2023-06-10T07:57:15;96822.02;;;21.87;45.60
47080;BME280;33067;49.296;14.470;2023-06-10T07:59:41;96818.83;;;21.97;45.81
47080;BME280;33067;49.296;14.470;2023-06-10T08:02:07;96813.97;;;22.02;45.94
47080;BME280;33067;49.296;14.470;2023-06-10T08:04:32;96810.31;;;22.25;45.48
47080;BME280;33067;49.296;14.470;2023-06-10T08:06:58;96812.58;;;22.58;45.16
47080;BME280;33067;49.296;14.470;2023-06-10T08:09:24;96813.68;;;21.99;44.94
47080;BME280;33067;49.296;14.470;2023-06-10T08:11:49;96811.66;;;21.84;45.56
47080;BME280;33067;49.296;14.470;2023-06-10T08:14:15;96808.94;;;22.89;44.73
47080;BME280;33067;49.296;14.470;2023-06-10T08:16:40;96811.88;;;22.62;44.22
47080;BME280;33067;49.296;14.470;2023-06-10T08:19:05;96819.96;;;22.29;44.32
47080;BME280;33067;49.296;14.470;2023-06-10T08:21:30;96815.20;;;22.72;43.30
47080;BME280;33067;49.296;14.470;2023-06-10T08:23:55;96817.88;;;22.82;42.88
47080;BME280;33067;49.296;14.470;2023-06-10T08:26:21;96817.58;;;22.78;42.87
47080;BME280;33067;49.296;14.470;2023-06-10T08:28:47;96819.65;;;22.57;43.32
47080;BME280;33067;49.296;14.470;2023-06-10T08:31:12;96821.24;;;22.65;43.15
47080;BME280;33067;49.296;14.470;2023-06-10T08:33:37;96823.28;;;22.98;42.55
47080;BME280;33067;49.296;14.470;2023-06-10T08:36:04;96821.24;;;22.41;43.12
47080;BME280;33067;49.296;14.470;2023-06-10T08:38:29;96819.62;;;22.34;43.10
47080;BME280;33067;49.296;14.470;2023-06-10T08:40:58;96816.83;;;22.68;43.64
47080;BME280;33067;49.296;14.470;2023-06-10T08:43:27;96820.31;;;22.49;41.98
47080;BME280;33067;49.296;14.470;2023-06-10T08:45:48;96817.12;;;22.43;42.34
47080;BME280;33067;49.296;14.470;2023-06-10T08:48:13;96810.33;;;22.95;41.87
47080;BME280;33067;49.296;14.470;2023-06-10T08:50:38;96806.95;;;22.91;40.97
47080;BME280;33067;49.296;14.470;2023-06-10T08:53:06;96809.15;;;22.26;41.71
47080;BME280;33067;49.296;14.470;2023-06-10T08:55:32;96810.39;;;22.85;41.14
47080;BME280;33067;49.296;14.470;2023-06-10T08:57:54;96812.71;;;22.39;41.02
47080;BME280;33067;49.296;14.470;2023-06-10T09:00:20;96814.56;;;22.09;42.02
47080;BME280;33067;49.296;14.470;2023-06-10T09:02:45;96807.50;;;22.46;42.27
47080;BME280;33067;49.296;14.470;2023-06-10T09:05:11;96807.88;;;22.66;41.74
47080;BME280;33067;49.296;14.470;2023-06-10T09:07:36;96805.74;;;22.75;41.47
47080;BME280;33067;49.296;14.470;2023-06-10T09:10:03;96813.02;;;21.52;42.36
47080;BME280;33067;49.296;14.470;2023-06-10T09:12:27;96811.99;;;22.43;41.75
47080;BME280;33067;49.296;14.470;2023-06-10T09:14:52;96817.98;;;21.56;43.21
47080;BME280;33067;49.296;14.470;2023-06-10T09:17:17;96823.25;;;21.77;43.58
47080;BME280;33067;49.296;14.470;2023-06-10T09:19:44;96825.37;;;21.78;43.20
47080;BME280;33067;49.296;14.470;2023-06-10T09:22:08;96824.38;;;21.60;43.08
47080;BME280;33067;49.296;14.470;2023-06-10T09:24:34;96822.27;;;21.83;43.51
47080;BME280;33067;49.296;14.470;2023-06-10T09:27:03;96822.00;;;22.00;43.10
47080;BME280;33067;49.296;14.470;2023-06-10T09:29:25;96821.45;;;22.35;42.76
47080;BME280;33067;49.296;14.470;2023-06-10T09:31:51;96823.96;;;22.30;42.79
47080;BME280;33067;49.296;14.470;2023-06-10T09:34:16;96825.09;;;22.81;42.96
47080;BME280;33067;49.296;14.470;2023-06-10T09:36:42;96824.24;;;22.63;42.82
47080;BME280;33067;49.296;14.470;2023-06-10T09:39:14;96823.76;;;22.89;42.79
47080;BME280;33067;49.296;14.470;2023-06-10T09:41:33;96816.70;;;23.29;42.15
47080;BME280;33067;49.296;14.470;2023-06-10T09:43:58;96817.94;;;23.51;42.25
47080;BME280;33067;49.296;14.470;2023-06-10T09:46:23;96822.24;;;23.06;41.57
47080;BME280;33067;49.296;14.470;2023-06-10T09:48:48;96827.83;;;22.41;42.01
47080;BME280;33067;49.296;14.470;2023-06-10T09:51:14;96823.06;;;22.57;42.44
47080;BME280;33067;49.296;14.470;2023-06-10T09:53:39;96821.73;;;22.42;42.62
47080;BME280;33067;49.296;14.470;2023-06-10T09:56:05;96822.97;;;22.97;42.56
47080;BME280;33067;49.296;14.470;2023-06-10T09:58:36;96820.68;;;22.81;41.78
47080;BME280;33067;49.296;14.470;2023-06-10T10:00:55;96820.03;;;23.06;41.66
47080;BME280;33067;49.296;14.470;2023-06-10T10:03:22;96821.01;;;23.21;41.39
47080;BME280;33067;49.296;14.470;2023-06-10T10:05:46;96819.43;;;23.24;41.03
47080;BME280;33067;49.296;14.470;2023-06-10T10:08:12;96820.73;;;23.65;40.74
47080;BME280;33067;49.296;14.470;2023-06-10T10:10:37;96819.39;;;23.12;41.68
47080;BME280;33067;49.296;14.470;2023-06-10T10:13:02;96816.14;;;23.00;42.24
47080;BME280;33067;49.296;14.470;2023-06-10T10:15:29;96815.08;;;22.83;41.91
47080;BME280;33067;49.296;14.470;2023-06-10T10:17:55;96811.21;;;23.58;41.45
47080;BME280;33067;49.296;14.470;2023-06-10T10:20:24;96813.38;;;23.90;40.54
47080;BME280;33067;49.296;14.470;2023-06-10T10:22:43;96808.02;;;23.91;40.12
47080;BME280;33067;49.296;14.470;2023-06-10T10:25:12;96800.90;;;24.00;40.35
47080;BME280;33067;49.296;14.470;2023-06-10T10:27:36;96800.45;;;24.12;39.29
47080;BME280;33067;49.296;14.470;2023-06-10T10:30:00;96793.62;;;24.31;39.23
47080;BME280;33067;49.296;14.470;2023-06-10T10:32:30;96794.80;;;24.34;38.99
47080;BME280;33067;49.296;14.470;2023-06-10T10:34:57;96793.26;;;24.44;38.94
47080;BME280;33067;49.296;14.470;2023-06-10T10:37:17;96790.82;;;24.53;38.94
47080;BME280;33067;49.296;14.470;2023-06-10T10:39:41;96789.57;;;23.84;39.64
47080;BME280;33067;49.296;14.470;2023-06-10T10:42:07;96785.63;;;23.47;39.84
47080;BME280;33067;49.296;14.470;2023-06-10T10:44:32;96782.00;;;23.64;39.94
47080;BME280;33067;49.296;14.470;2023-06-10T10:47:02;96770.62;;;22.88;40.65
47080;BME280;33067;49.296;14.470;2023-06-10T10:49:23;96768.57;;;22.98;40.04
47080;BME280;33067;49.296;14.470;2023-06-10T10:51:54;96767.87;;;23.85;39.97
47080;BME280;33067;49.296;14.470;2023-06-10T10:54:13;96763.73;;;23.99;39.15
47080;BME280;33067;49.296;14.470;2023-06-10T10:56:38;96767.36;;;23.02;39.29
47080;BME280;33067;49.296;14.470;2023-06-10T10:59:06;96761.24;;;23.57;40.34
47080;BME280;33067;49.296;14.470;2023-06-10T11:01:40;96761.41;;;23.60;40.40
47080;BME280;33067;49.296;14.470;2023-06-10T11:03:56;96757.03;;;23.95;39.40
47080;BME280;33067;49.296;14.470;2023-06-10T11:06:20;96758.42;;;23.48;38.62
47080;BME280;33067;49.296;14.470;2023-06-10T11:08:46;96760.29;;;23.89;38.39
47080;BME280;33067;49.296;14.470;2023-06-10T11:11:18;96756.05;;;23.41;38.90
47080;BME280;33067;49.296;14.470;2023-06-10T11:13:37;96748.46;;;23.05;38.51
47080;BME280;33067;49.296;14.470;2023-06-10T11:16:04;96744.85;;;23.61;38.61
47080;BME280;33067;49.296;14.470;2023-06-10T11:18:28;96738.04;;;23.59;39.53
47080;BME280;33067;49.296;14.470;2023-06-10T11:20:57;96738.05;;;23.37;39.73
47080;BME280;33067;49.296;14.470;2023-06-10T11:23:30;96747.50;;;23.74;38.86
47080;BME280;33067;49.296;14.470;2023-06-10T11:25:46;96746.79;;;23.55;38.19
47080;BME280;33067;49.296;14.470;2023-06-10T11:28:19;96736.87;;;23.68;39.01
47080;BME280;33067;49.296;14.470;2023-06-10T11:30:35;96734.47;;;23.94;38.59
47080;BME280;33067;49.296;14.470;2023-06-10T11:33:00;96729.29;;;24.08;37.85
47080;BME280;33067;49.296;14.470;2023-06-10T11:35:26;96730.49;;;23.71;37.31
47080;BME280;33067;49.296;14.470;2023-06-10T11:37:52;96727.70;;;24.22;38.38
47080;BME280;33067;49.296;14.470;2023-06-10T11:40:17;96729.99;;;24.35;37.22
47080;BME280;33067;49.296;14.470;2023-06-10T11:42:42;96734.43;;;23.80;38.14
47080;BME280;33067;49.296;14.470;2023-06-10T11:45:09;96730.09;;;23.94;39.04
47080;BME280;33067;49.296;14.470;2023-06-10T11:47:33;96727.67;;;23.65;39.80
47080;BME280;33067;49.296;14.470;2023-06-10T11:49:58;96731.08;;;23.72;39.41
47080;BME280;33067;49.296;14.470;2023-06-10T11:52:26;96730.39;;;23.75;39.26
47080;BME280;33067;49.296;14.470;2023-06-10T11:54:54;96730.90;;;24.24;38.55
47080;BME280;33067;49.296;14.470;2023-06-10T11:57:15;96731.05;;;24.55;37.19
47080;BME280;33067;49.296;14.470;2023-06-10T11:59:41;96732.84;;;24.95;37.85
47080;BME280;33067;49.296;14.470;2023-06-10T12:02:14;96731.13;;;24.25;38.30
47080;BME280;33067;49.296;14.470;2023-06-10T12:04:33;96738.18;;;23.82;37.29
47080;BME280;33067;49.296;14.470;2023-06-10T12:06:58;96733.04;;;23.79;36.91
47080;BME280;33067;49.296;14.470;2023-06-10T12:09:25;96721.84;;;24.10;36.07
47080;BME280;33067;49.296;14.470;2023-06-10T12:11:51;96724.66;;;24.65;37.19
47080;BME280;33067;49.296;14.470;2023-06-10T12:14:15;96715.10;;;24.19;37.87
47080;BME280;33067;49.296;14.470;2023-06-10T12:16:48;96719.05;;;24.22;37.60
47080;BME280;33067;49.296;14.470;2023-06-10T12:19:06;96730.44;;;24.16;37.08
47080;BME280;33067;49.296;14.470;2023-06-10T12:21:33;96728.55;;;23.88;37.56
47080;BME280;33067;49.296;14.470;2023-06-10T12:24:03;96718.21;;;24.35;37.20
47080;BME280;33067;49.296;14.470;2023-06-10T12:28:52;96713.23;;;24.38;37.24
47080;BME280;33067;49.296;14.470;2023-06-10T12:31:14;96713.48;;;25.23;36.81
47080;BME280;33067;49.296;14.470;2023-06-10T12:33:39;96717.43;;;24.10;37.06
47080;BME280;33067;49.296;14.470;2023-06-10T12:36:04;96705.88;;;24.34;36.67
47080;BME280;33067;49.296;14.470;2023-06-10T12:38:29;96714.77;;;24.77;35.86
47080;BME280;33067;49.296;14.470;2023-06-10T12:41:01;96719.35;;;24.63;36.56
47080;BME280;33067;49.296;14.470;2023-06-10T12:43:20;96715.61;;;24.71;37.00
47080;BME280;33067;49.296;14.470;2023-06-10T12:45:45;96727.84;;;24.13;38.42